createdAt,value
2022-12-01T00:01:18.969Z,27.88
2022-12-01T00:03:46.573Z,28.13
2022-12-01T00:06:17.070Z,26.65
2022-12-01T00:09:07.520Z,29.05
2022-12-01T00:11:35.199Z,29.05
2022-12-01T00:14:03.336Z,27.88
2022-12-01T00:16:31.638Z,29.95
2022-12-01T00:18:59.780Z,28.42
2022-12-01T00:21:28.287Z,28.58
2022-12-01T00:23:58.889Z,29.25
2022-12-01T00:26:27.943Z,28.88
2022-12-01T00:28:57.463Z,29.75
2022-12-01T00:31:26.167Z,28.60
2022-12-01T00:33:54.204Z,28.13
2022-12-01T00:36:22.972Z,28.50
2022-12-01T00:38:53.461Z,28.10
2022-12-01T00:41:23.460Z,28.58
2022-12-01T00:43:51.474Z,28.23
2022-12-01T00:46:19.942Z,27.40
2022-12-01T00:48:47.782Z,32.30
2022-12-01T00:51:15.408Z,32.03
2022-12-01T00:53:43.037Z,35.08
2022-12-01T00:56:10.707Z,28.23
2022-12-01T00:58:39.674Z,28.60
2022-12-01T01:01:07.645Z,32.78
2022-12-01T01:03:35.632Z,27.95
2022-12-01T01:06:08.517Z,32.92
2022-12-01T01:08:36.473Z,33.33
2022-12-01T01:11:04.805Z,33.15
2022-12-01T01:13:32.771Z,34.65
2022-12-01T01:16:03.893Z,31.17
2022-12-01T01:18:31.970Z,31.65
2022-12-01T01:21:01.262Z,36.22
2022-12-01T01:23:28.922Z,35.70
2022-12-01T01:26:02.071Z,39.58
2022-12-01T01:28:30.718Z,34.13
2022-12-01T01:30:58.438Z,34.75
2022-12-01T01:33:27.573Z,34.75
2022-12-01T01:35:55.236Z,33.15
2022-12-01T01:38:23.003Z,33.30
2022-12-01T01:40:50.657Z,34.33
2022-12-01T01:43:37.499Z,36.63
2022-12-01T01:46:05.778Z,34.63
2022-12-01T01:48:36.546Z,33.63
2022-12-01T01:51:04.700Z,38.97
2022-12-01T01:53:33.306Z,34.97
2022-12-01T01:56:03.305Z,32.17
2022-12-01T01:58:32.833Z,34.47
2022-12-01T02:01:00.509Z,32.75
2022-12-01T02:03:29.287Z,33.13
2022-12-01T02:06:03.434Z,30.08
2022-12-01T02:08:35.287Z,35.13
2022-12-01T02:11:29.766Z,29.50
2022-12-01T02:14:09.385Z,30.35
2022-12-01T02:16:45.451Z,31.75
2022-12-01T02:19:43.694Z,33.25
2022-12-01T02:22:23.173Z,30.88
2022-12-01T02:25:14.089Z,32.63
2022-12-01T02:28:03.984Z,34.67
2022-12-01T02:30:40.172Z,35.88
2022-12-01T02:33:12.938Z,36.85
2022-12-01T02:35:48.180Z,32.13
2022-12-01T02:38:22.531Z,30.25
2022-12-01T02:40:56.671Z,31.98
2022-12-01T02:43:31.006Z,30.67
2022-12-01T02:46:03.852Z,31.75
2022-12-01T02:48:34.848Z,28.92
2022-12-01T02:51:08.222Z,27.15
2022-12-01T02:53:36.338Z,31.70
2022-12-01T02:56:10.557Z,28.83
2022-12-01T02:58:38.244Z,29.85
2022-12-01T03:01:21.212Z,29.73
2022-12-01T03:04:11.125Z,30.55
2022-12-01T03:06:49.190Z,28.80
2022-12-01T03:09:28.155Z,29.05
2022-12-01T03:12:06.464Z,29.60
2022-12-01T03:14:40.515Z,28.75
2022-12-01T03:17:16.148Z,27.38
2022-12-01T03:19:47.463Z,29.75
2022-12-01T03:22:20.216Z,30.15
2022-12-01T03:24:50.531Z,28.92
2022-12-01T03:27:23.576Z,31.48
2022-12-01T03:29:54.959Z,33.50
2022-12-01T03:32:28.347Z,30.40
2022-12-01T03:34:59.854Z,29.40
2022-12-01T03:37:34.051Z,28.98
2022-12-01T03:40:06.278Z,30.63
2022-12-01T03:42:38.690Z,29.10
2022-12-01T03:45:10.562Z,28.13
2022-12-01T03:47:40.464Z,28.48
2022-12-01T03:50:13.847Z,27.15
2022-12-01T03:53:03.935Z,28.77
2022-12-01T03:55:37.811Z,29.00
2022-12-01T03:58:39.550Z,31.13
2022-12-01T04:01:08.728Z,28.10
2022-12-01T04:03:37.660Z,31.20
2022-12-01T04:06:06.174Z,31.17
2022-12-01T04:08:33.938Z,28.30
2022-12-01T04:11:21.595Z,29.33
2022-12-01T04:13:48.220Z,27.70
2022-12-01T04:16:15.921Z,27.33
2022-12-01T04:18:45.112Z,26.00
2022-12-01T04:21:12.791Z,26.45
2022-12-01T04:23:57.942Z,31.10
2022-12-01T04:26:25.740Z,25.98
2022-12-01T04:28:53.420Z,28.23
2022-12-01T04:31:21.078Z,26.50
2022-12-01T04:33:50.125Z,27.33
2022-12-01T04:36:17.747Z,27.33
2022-12-01T04:38:45.387Z,27.67
2022-12-01T04:41:14.102Z,27.10
2022-12-01T04:43:42.190Z,24.67
2022-12-01T04:46:10.325Z,24.55
2022-12-01T04:48:39.088Z,25.23
2022-12-01T04:51:09.276Z,23.48
2022-12-01T04:53:37.345Z,21.95
2022-12-01T04:56:05.638Z,23.42
2022-12-01T04:58:34.719Z,24.13
2022-12-01T05:01:03.837Z,24.33
2022-12-01T05:03:31.466Z,23.23
2022-12-01T05:06:03.345Z,23.90
2022-12-01T05:08:32.297Z,23.38
2022-12-01T05:10:59.993Z,21.92
2022-12-01T05:13:28.466Z,23.38
2022-12-01T05:16:05.805Z,26.05
2022-12-01T05:18:33.585Z,25.45
2022-12-01T05:21:00.375Z,27.13
2022-12-01T05:23:29.935Z,27.23
2022-12-01T05:25:58.991Z,23.83
2022-12-01T05:28:27.715Z,27.92
2022-12-01T05:30:55.707Z,25.38
2022-12-01T05:33:23.889Z,25.35
2022-12-01T05:35:52.319Z,27.52
2022-12-01T05:38:20.557Z,22.95
2022-12-01T05:40:52.273Z,26.90
2022-12-01T05:43:28.250Z,27.35
2022-12-01T05:45:57.786Z,26.52
2022-12-01T05:48:25.550Z,25.52
2022-12-01T05:50:53.276Z,23.33
2022-12-01T05:53:21.063Z,27.45
2022-12-01T05:55:53.260Z,23.60
2022-12-01T05:58:22.400Z,21.50
2022-12-01T06:00:50.074Z,23.63
2022-12-01T06:03:17.678Z,20.88
2022-12-01T06:05:45.372Z,23.35
2022-12-01T06:08:13.061Z,22.73
2022-12-01T06:10:40.733Z,22.30
2022-12-01T06:13:08.435Z,21.92
2022-12-01T06:15:37.513Z,21.65
2022-12-01T06:18:05.318Z,21.88
2022-12-01T06:20:32.987Z,23.13
2022-12-01T06:23:00.638Z,21.80
2022-12-01T06:25:28.289Z,21.30
2022-12-01T06:27:57.328Z,23.85
2022-12-01T06:30:25.348Z,24.23
2022-12-01T06:32:54.524Z,24.20
2022-12-01T06:35:22.165Z,22.17
2022-12-01T06:37:49.851Z,21.00
2022-12-01T06:40:17.881Z,20.40
2022-12-01T06:42:45.599Z,23.50
2022-12-01T06:45:13.326Z,26.58
2022-12-01T06:47:41.278Z,26.85
2022-12-01T06:50:12.217Z,25.70
2022-12-01T06:52:40.041Z,26.67
2022-12-01T06:55:08.274Z,27.30
2022-12-01T06:57:36.037Z,28.48
2022-12-01T07:00:05.183Z,26.73
2022-12-01T07:02:33.060Z,27.33
2022-12-01T07:05:00.947Z,27.10
2022-12-01T07:07:29.989Z,24.70
2022-12-01T07:09:57.623Z,27.00
2022-12-01T07:12:25.312Z,28.73
2022-12-01T07:14:52.941Z,27.00
2022-12-01T07:17:20.594Z,29.85
2022-12-01T07:19:48.531Z,30.20
2022-12-01T07:22:16.535Z,32.78
2022-12-01T07:24:45.519Z,34.65
2022-12-01T07:27:13.165Z,32.60
2022-12-01T07:29:40.813Z,31.60
2022-12-01T07:32:08.446Z,33.63
2022-12-01T07:34:36.041Z,32.08
2022-12-01T07:37:03.681Z,35.70
2022-12-01T07:39:31.293Z,34.15
2022-12-01T07:42:00.316Z,34.25
2022-12-01T07:44:27.985Z,31.25
2022-12-01T07:46:55.717Z,36.13
2022-12-01T07:49:23.426Z,31.52
2022-12-01T07:51:51.117Z,32.47
2022-12-01T07:54:20.916Z,32.08
2022-12-01T07:56:48.556Z,30.60
2022-12-01T07:59:17.546Z,36.00
2022-12-01T08:01:46.192Z,34.30
2022-12-01T08:04:13.951Z,27.90
2022-12-01T08:06:41.703Z,27.80
2022-12-01T08:09:09.475Z,27.20
2022-12-01T08:11:37.127Z,29.27
2022-12-01T08:14:04.776Z,27.00
2022-12-01T08:16:33.815Z,26.40
2022-12-01T08:19:01.596Z,24.33
2022-12-01T08:21:29.259Z,25.13
2022-12-01T08:23:58.918Z,26.20
2022-12-01T08:26:27.350Z,22.48
2022-12-01T08:28:55.097Z,20.45
2022-12-01T08:31:25.642Z,20.48
2022-12-01T08:33:55.414Z,22.25
2022-12-01T08:36:24.308Z,23.75
2022-12-01T08:38:53.936Z,21.90
2022-12-01T08:41:22.472Z,20.40
2022-12-01T08:43:57.965Z,21.02
2022-12-01T08:46:27.145Z,19.15
2022-12-01T08:48:57.392Z,18.98
2022-12-01T08:51:25.854Z,18.23
2022-12-01T08:53:53.604Z,19.10
2022-12-01T08:56:25.606Z,18.77
2022-12-01T08:58:54.745Z,17.95
2022-12-01T09:01:22.904Z,18.20
2022-12-01T09:04:04.906Z,18.30
2022-12-01T09:06:35.412Z,19.85
2022-12-01T09:09:03.070Z,20.48
2022-12-01T09:11:30.877Z,20.25
2022-12-01T09:14:00.551Z,20.90
2022-12-01T09:16:28.424Z,23.55
2022-12-01T09:18:56.432Z,22.15
2022-12-01T09:21:25.911Z,21.95
2022-12-01T09:23:55.326Z,22.98
2022-12-01T09:26:23.730Z,23.20
2022-12-01T09:28:54.428Z,24.70
2022-12-01T09:31:23.274Z,25.30
2022-12-01T09:33:55.944Z,22.77
2022-12-01T09:36:23.628Z,21.30
2022-12-01T09:38:51.450Z,22.52
2022-12-01T09:41:24.099Z,25.00
2022-12-01T09:43:57.421Z,27.95
2022-12-01T09:46:29.412Z,28.98
2022-12-01T09:48:59.502Z,28.98
2022-12-01T09:51:29.816Z,30.25
2022-12-01T09:53:59.666Z,27.38
2022-12-01T09:56:30.864Z,29.02
2022-12-01T09:59:01.482Z,29.17
2022-12-01T10:01:34.514Z,29.75
2022-12-01T10:04:09.162Z,31.30
2022-12-01T10:06:40.155Z,29.88
2022-12-01T10:09:19.822Z,27.27
2022-12-01T10:11:51.870Z,26.42
2022-12-01T10:14:22.022Z,27.55
2022-12-01T10:17:08.259Z,27.58
2022-12-01T10:19:42.383Z,24.60
2022-12-01T10:22:33.719Z,26.50
2022-12-01T10:25:07.028Z,25.08
2022-12-01T10:27:48.491Z,24.92
2022-12-01T10:30:18.498Z,27.48
2022-12-01T10:32:53.273Z,28.80
2022-12-01T10:35:23.920Z,28.30
2022-12-01T10:37:56.375Z,26.35
2022-12-01T10:40:24.793Z,28.35
2022-12-01T10:42:54.779Z,25.50
2022-12-01T10:45:25.153Z,27.15
2022-12-01T10:48:15.762Z,29.58
2022-12-01T10:50:44.932Z,25.92
2022-12-01T10:53:28.773Z,27.42
2022-12-01T10:56:10.592Z,27.08
2022-12-01T10:58:47.755Z,25.70
2022-12-01T11:01:22.761Z,27.88
2022-12-01T11:03:53.288Z,26.35
2022-12-01T11:06:27.618Z,27.98
2022-12-01T11:08:58.465Z,28.17
2022-12-01T11:11:33.524Z,31.30
2022-12-01T11:14:05.981Z,28.05
2022-12-01T11:16:40.742Z,33.30
2022-12-01T11:19:21.917Z,31.80
2022-12-01T11:21:56.651Z,32.63
2022-12-01T11:24:44.986Z,31.75
2022-12-01T11:27:17.757Z,32.75
2022-12-01T11:29:48.898Z,29.00
2022-12-01T11:32:23.749Z,32.13
2022-12-01T11:34:55.203Z,35.88
2022-12-01T11:37:26.749Z,35.08
2022-12-01T11:39:54.942Z,36.50
2022-12-01T11:42:26.579Z,34.30
2022-12-01T11:45:04.037Z,36.05
2022-12-01T11:47:31.944Z,35.65
2022-12-01T11:50:01.669Z,38.22
2022-12-01T11:52:31.793Z,38.40
2022-12-01T11:55:19.786Z,37.08
2022-12-01T11:57:50.928Z,39.38
2022-12-01T12:00:22.084Z,39.33
2022-12-01T12:03:06.838Z,38.10
2022-12-01T12:05:46.794Z,37.80
2022-12-01T12:08:26.443Z,39.15
2022-12-01T12:11:03.099Z,41.38
2022-12-01T12:14:10.897Z,41.53
2022-12-01T12:16:53.402Z,39.85
2022-12-01T12:19:52.265Z,39.85
2022-12-01T12:22:34.537Z,40.55
2022-12-01T12:25:21.113Z,42.80
2022-12-01T12:27:55.669Z,43.08
2022-12-01T12:30:26.409Z,41.67
2022-12-01T12:33:29.722Z,44.58
2022-12-01T12:36:07.783Z,44.28
2022-12-01T12:38:47.270Z,41.13
2022-12-01T12:41:29.418Z,44.67
2022-12-01T12:44:20.481Z,43.38
2022-12-01T12:46:58.021Z,42.83
2022-12-01T12:49:37.388Z,44.15
2022-12-01T12:52:09.122Z,41.45
2022-12-01T12:54:46.257Z,42.03
2022-12-01T12:57:23.848Z,42.35
2022-12-01T12:59:58.762Z,44.85
2022-12-01T13:02:34.453Z,43.38
2022-12-01T13:05:08.152Z,42.60
2022-12-01T13:07:42.215Z,42.38
2022-12-01T13:10:24.046Z,41.65
2022-12-01T13:13:00.934Z,43.22
2022-12-01T13:15:31.513Z,42.90
2022-12-01T13:18:05.079Z,44.95
2022-12-01T13:20:37.584Z,42.17
2022-12-01T13:23:05.992Z,42.72
2022-12-01T13:25:38.154Z,45.85
2022-12-01T13:28:15.469Z,48.03
2022-12-01T13:30:59.455Z,47.35
2022-12-01T13:33:27.667Z,43.10
2022-12-01T13:36:23.005Z,44.33
2022-12-01T13:38:57.141Z,45.95
2022-12-01T13:41:29.270Z,42.97
2022-12-01T13:44:04.563Z,43.78
2022-12-01T13:46:34.518Z,41.92
2022-12-01T13:49:04.844Z,41.95
2022-12-01T13:52:05.685Z,47.13
2022-12-01T13:54:37.190Z,44.88
2022-12-01T13:57:07.970Z,45.97
2022-12-01T13:59:57.929Z,46.42
2022-12-01T14:02:27.851Z,45.88
2022-12-01T14:04:55.862Z,40.95
2022-12-01T14:07:37.869Z,42.53
2022-12-01T14:10:28.277Z,42.65
2022-12-01T14:13:01.050Z,41.90
2022-12-01T14:15:42.053Z,42.15
2022-12-01T14:18:26.892Z,40.20
2022-12-01T14:20:54.723Z,41.83
2022-12-01T14:23:28.926Z,42.47
2022-12-01T14:26:19.260Z,37.78
2022-12-01T14:29:27.794Z,41.33
2022-12-01T14:32:23.679Z,40.80
2022-12-01T14:35:07.309Z,39.33
2022-12-01T14:37:41.653Z,41.47
2022-12-01T14:40:16.591Z,36.42
2022-12-01T14:43:07.004Z,40.42
2022-12-01T14:45:41.556Z,38.50
2022-12-01T14:48:14.090Z,45.40
2022-12-01T14:50:46.819Z,45.20
2022-12-01T14:53:26.174Z,43.47
2022-12-01T14:55:57.467Z,44.95
2022-12-01T14:58:28.968Z,45.67
2022-12-01T15:01:01.700Z,43.70
2022-12-01T15:03:34.275Z,47.00
2022-12-01T15:06:02.277Z,43.83
2022-12-01T15:11:25.167Z,43.83
2022-12-01T15:13:55.795Z,43.22
2022-12-01T15:16:25.299Z,43.05
2022-12-01T15:18:53.536Z,41.85
2022-12-01T15:21:23.952Z,44.08
2022-12-01T15:24:00.176Z,41.05
2022-12-01T15:26:30.891Z,44.83
2022-12-01T15:29:15.295Z,39.22
2022-12-01T15:31:44.878Z,41.42
2022-12-01T15:34:16.521Z,43.00
2022-12-01T15:36:44.981Z,40.03
2022-12-01T15:39:16.504Z,41.45
2022-12-01T15:41:46.525Z,40.53
2022-12-01T15:44:22.563Z,40.20
2022-12-01T15:46:50.229Z,41.13
2022-12-01T15:49:20.483Z,39.97
2022-12-01T15:51:49.949Z,42.42
2022-12-01T15:54:21.605Z,45.10
2022-12-01T15:56:53.153Z,42.55
2022-12-01T15:59:29.651Z,43.13
2022-12-01T16:01:57.677Z,44.20
2022-12-01T16:04:27.604Z,44.20
2022-12-01T16:06:59.282Z,45.03
2022-12-01T16:09:30.985Z,44.00
2022-12-01T16:12:22.713Z,42.17
2022-12-01T16:14:55.576Z,44.15
2022-12-01T16:17:24.142Z,42.72
2022-12-01T16:20:16.398Z,43.80
2022-12-01T16:22:45.984Z,40.85
2022-12-01T16:25:18.763Z,41.75
2022-12-01T16:27:53.371Z,45.20
2022-12-01T16:30:24.687Z,43.83
2022-12-01T16:32:53.000Z,41.53
2022-12-01T16:35:24.617Z,42.72
2022-12-01T16:37:52.242Z,42.97
2022-12-01T16:40:20.382Z,44.85
2022-12-01T16:42:49.711Z,43.03
2022-12-01T16:45:18.897Z,43.30
2022-12-01T16:47:49.566Z,47.00
2022-12-01T16:50:19.422Z,43.22
2022-12-01T16:52:48.317Z,43.65
2022-12-01T16:55:39.041Z,40.05
2022-12-01T16:58:06.836Z,44.35
2022-12-01T17:00:35.058Z,41.17
2022-12-01T17:03:04.752Z,43.17
2022-12-01T17:05:32.852Z,42.53
2022-12-01T17:08:00.576Z,40.47
2022-12-01T17:10:28.268Z,39.45
2022-12-01T17:12:55.925Z,37.75
2022-12-01T17:15:23.514Z,37.50
2022-12-01T17:17:51.221Z,40.67
2022-12-01T17:20:20.335Z,39.38
2022-12-01T17:22:47.929Z,41.08
2022-12-01T17:25:15.578Z,41.58
2022-12-01T17:27:44.000Z,40.38
2022-12-01T17:30:12.815Z,40.70
2022-12-01T17:32:40.435Z,42.60
2022-12-01T17:35:08.847Z,41.17
2022-12-01T17:37:37.896Z,40.97
2022-12-01T17:40:06.696Z,41.47
2022-12-01T17:42:34.800Z,40.97
2022-12-01T17:45:02.619Z,41.30
2022-12-01T17:47:30.214Z,38.20
2022-12-01T17:49:57.809Z,38.90
2022-12-01T17:52:28.368Z,41.15
2022-12-01T17:54:57.994Z,40.42
2022-12-01T17:57:26.248Z,41.85
2022-12-01T17:59:53.927Z,33.35
2022-12-01T18:02:21.661Z,31.70
2022-12-01T18:04:49.727Z,32.17
2022-12-01T18:07:17.681Z,32.03
2022-12-01T18:09:45.355Z,32.25
2022-12-01T18:12:14.381Z,34.30
2022-12-01T18:14:42.007Z,32.30
2022-12-01T18:17:09.746Z,34.65
2022-12-01T18:19:37.721Z,32.35
2022-12-01T18:22:05.436Z,32.95
2022-12-01T18:24:33.166Z,32.85
2022-12-01T18:27:00.835Z,34.58
2022-12-01T18:29:29.827Z,33.42
2022-12-01T18:31:58.700Z,35.05
2022-12-01T18:34:29.302Z,31.73
2022-12-01T18:36:57.021Z,33.13
2022-12-01T18:39:24.687Z,34.40
2022-12-01T18:41:52.431Z,33.35
2022-12-01T18:44:22.566Z,32.90
2022-12-01T18:46:51.684Z,31.48
2022-12-01T18:49:19.827Z,30.35
2022-12-01T18:51:47.452Z,30.10
2022-12-01T18:54:16.390Z,30.10
2022-12-01T18:56:44.090Z,32.38
2022-12-01T18:59:13.492Z,34.53
2022-12-01T19:01:44.134Z,31.67
2022-12-01T19:04:15.708Z,32.10
2022-12-01T19:06:44.797Z,31.50
2022-12-01T19:09:15.235Z,31.10
2022-12-01T19:11:43.770Z,29.33
2022-12-01T19:14:15.688Z,29.77
2022-12-01T19:16:43.549Z,28.25
2022-12-01T19:19:12.810Z,25.48
2022-12-01T19:21:40.560Z,28.80
2022-12-01T19:24:08.594Z,27.98
2022-12-01T19:26:36.257Z,24.88
2022-12-01T19:29:04.462Z,23.30
2022-12-01T19:31:32.177Z,21.58
2022-12-01T19:34:03.614Z,22.33
2022-12-01T19:36:32.932Z,23.00
2022-12-01T19:39:04.052Z,19.85
2022-12-01T19:41:35.046Z,19.77
2022-12-01T19:44:02.782Z,20.48
2022-12-01T19:46:30.439Z,19.05
2022-12-01T19:49:01.113Z,19.80
2022-12-01T19:51:31.513Z,20.52
2022-12-01T19:54:00.539Z,19.38
2022-12-01T19:56:29.627Z,19.05
2022-12-01T19:58:58.014Z,19.27
2022-12-01T20:01:26.915Z,19.55
2022-12-01T20:03:55.545Z,19.90
2022-12-01T20:06:25.443Z,21.05
2022-12-01T20:08:53.770Z,19.33
2022-12-01T20:11:23.412Z,18.27
2022-12-01T20:13:51.409Z,17.10
2022-12-01T20:16:21.163Z,16.33
2022-12-01T20:18:49.551Z,17.02
2022-12-01T20:21:19.309Z,19.27
2022-12-01T20:23:48.270Z,17.85
2022-12-01T20:26:17.967Z,18.75
2022-12-01T20:28:48.564Z,21.55
2022-12-01T20:31:20.916Z,20.00
2022-12-01T20:33:49.410Z,19.73
2022-12-01T20:36:17.783Z,19.92
2022-12-01T20:38:45.836Z,21.75
2022-12-01T20:41:13.838Z,21.45
2022-12-01T20:43:41.573Z,21.67
2022-12-01T20:46:11.801Z,22.48
2022-12-01T20:48:39.603Z,22.13
2022-12-01T20:51:08.868Z,24.15
2022-12-01T20:53:37.098Z,21.95
2022-12-01T20:56:04.782Z,23.38
2022-12-01T20:58:37.239Z,23.63
2022-12-01T21:01:08.471Z,24.83
2022-12-01T21:03:39.004Z,22.58
2022-12-01T21:06:07.412Z,24.98
2022-12-01T21:08:36.989Z,27.52
2022-12-01T21:11:06.448Z,25.30
2022-12-01T21:13:39.442Z,26.70
2022-12-01T21:16:14.240Z,27.90
2022-12-01T21:18:51.224Z,27.80
2022-12-01T21:21:25.322Z,24.02
2022-12-01T21:24:09.822Z,26.15
2022-12-01T21:26:38.507Z,27.25
2022-12-01T21:29:18.177Z,28.20
2022-12-01T21:31:46.560Z,29.77
2022-12-01T21:34:19.643Z,28.95
2022-12-01T21:36:48.739Z,29.58
2022-12-01T21:39:18.286Z,28.20
2022-12-01T21:41:45.899Z,29.30
2022-12-01T21:44:16.598Z,28.48
2022-12-01T21:46:45.232Z,28.90
2022-12-01T21:49:18.845Z,28.73
2022-12-01T21:51:47.837Z,30.80
2022-12-01T21:54:19.893Z,28.67
2022-12-01T21:56:48.728Z,27.45
2022-12-01T21:59:20.670Z,29.75
2022-12-01T22:01:49.217Z,27.20
2022-12-01T22:04:21.959Z,28.13
2022-12-01T22:06:52.663Z,26.70
2022-12-01T22:09:26.281Z,25.73
2022-12-01T22:11:55.508Z,28.13
2022-12-01T22:14:25.507Z,26.83
2022-12-01T22:16:57.187Z,26.98
2022-12-01T22:19:30.859Z,30.60
2022-12-01T22:22:01.924Z,30.20
2022-12-01T22:24:35.447Z,27.65
2022-12-01T22:27:32.504Z,28.60
2022-12-01T22:30:03.024Z,27.98
2022-12-01T22:32:39.980Z,30.58
2022-12-01T22:35:22.061Z,28.10
2022-12-01T22:37:51.500Z,28.45
2022-12-01T22:40:35.934Z,27.25
2022-12-01T22:43:25.856Z,30.25
2022-12-01T22:46:11.216Z,30.17
2022-12-01T22:48:41.318Z,27.35
2022-12-01T22:51:24.337Z,27.67
2022-12-01T22:53:57.928Z,26.98
2022-12-01T22:56:30.547Z,29.17
2022-12-01T22:58:58.196Z,30.17
2022-12-01T23:01:28.237Z,28.23
2022-12-01T23:04:09.147Z,28.02
2022-12-01T23:06:58.608Z,28.63
2022-12-01T23:09:30.025Z,28.45
2022-12-01T23:12:02.501Z,27.13
2022-12-01T23:14:30.164Z,29.15
2022-12-01T23:17:05.433Z,28.33
2022-12-01T23:19:33.454Z,29.30
2022-12-01T23:22:03.054Z,29.50
2022-12-01T23:24:33.884Z,30.80
2022-12-01T23:27:02.020Z,31.88
2022-12-01T23:29:31.134Z,30.13
2022-12-01T23:31:58.855Z,31.98
2022-12-01T23:34:26.498Z,32.30
2022-12-01T23:36:54.166Z,33.85
2022-12-01T23:39:30.149Z,30.95
2022-12-01T23:41:57.841Z,33.35
2022-12-01T23:44:36.432Z,33.33
2022-12-01T23:47:04.825Z,28.23
2022-12-01T23:49:35.375Z,30.38
2022-12-01T23:52:05.024Z,27.77
2022-12-01T23:54:35.686Z,22.35
2022-12-01T23:57:05.317Z,25.63
2022-12-01T23:59:33.112Z,21.50
